Time;durP1;ratioP1;P1;durP2;ratioP2;P2;SDS_P1;SDS_P2;PMS_P1;PMS_P2;Temp;Humidity;BMP_temperature;BMP_pressure;BME280_temperature;BME280_humidity;BME280_pressure;Samples;Min_cycle;Max_cycle;Signal;HPM_P1;HPM_P2
2023/06/12 00:00:37;;;;;;;1.20;1.10;;;25.80;38.40;;;;;;5045004;28;20060;-63
2023/06/12 00:03:03;;;;;;;1.80;0.80;;;25.80;38.50;;;;;;5063596;28;20123;-62
2023/06/12 00:05:28;;;;;;;1.40;1.15;;;25.70;38.70;;;;;;5055284;28;20108;-63
2023/06/12 00:07:56;;;;;;;1.95;1.27;;;25.70;38.80;;;;;;5044379;28;20025;-65
2023/06/12 00:10:23;;;;;;;1.95;1.05;;;25.70;38.70;;;;;;5039570;28;20460;-65
2023/06/12 00:12:49;;;;;;;1.58;1.15;;;25.70;38.90;;;;;;5066602;28;20028;-66
2023/06/12 00:15:14;;;;;;;2.47;1.00;;;25.60;38.90;;;;;;5063855;28;20235;-66
2023/06/12 00:17:40;;;;;;;1.85;1.30;;;25.60;39.00;;;;;;5068689;28;20029;-65
2023/06/12 00:20:07;;;;;;;2.10;1.38;;;25.60;39.10;;;;;;5067157;28;20028;-65
2023/06/12 00:22:39;;;;;;;1.27;1.05;;;25.50;39.00;;;;;;5069083;28;20021;-66
2023/06/12 00:25:08;;;;;;;1.10;0.98;;;25.50;39.00;;;;;;5067218;28;20440;-66
2023/06/12 00:27:35;;;;;;;1.10;1.00;;;25.50;39.00;;;;;;5065856;28;20054;-65
2023/06/12 00:30:01;;;;;;;1.73;1.48;;;25.40;39.10;;;;;;5064819;28;20051;-65
2023/06/12 00:32:26;;;;;;;2.03;1.23;;;25.40;39.20;;;;;;5064547;28;20049;-63
2023/06/12 00:34:52;;;;;;;1.20;1.10;;;25.30;39.30;;;;;;5034122;28;20060;-63
2023/06/12 00:37:18;;;;;;;2.35;0.90;;;25.30;40.10;;;;;;5068453;28;20115;-63
2023/06/12 00:39:44;;;;;;;1.33;0.90;;;25.20;39.40;;;;;;5044302;28;20061;-63
2023/06/12 00:42:10;;;;;;;1.65;0.85;;;25.20;39.50;;;;;;5027418;28;20040;-63
2023/06/12 00:44:36;;;;;;;1.70;0.88;;;25.10;39.40;;;;;;5043389;28;20036;-63
2023/06/12 00:47:03;;;;;;;0.98;0.90;;;25.20;39.50;;;;;;5064806;28;20033;-63
2023/06/12 00:49:29;;;;;;;1.27;1.10;;;25.10;39.50;;;;;;5063650;28;20391;-63
2023/06/12 00:51:55;;;;;;;1.42;1.17;;;25.10;39.50;;;;;;5051143;28;20048;-63
2023/06/12 00:54:24;;;;;;;0.82;0.80;;;25.10;39.50;;;;;;5045119;28;20468;-65
2023/06/12 00:56:50;;;;;;;1.10;1.00;;;25.10;39.70;;;;;;5060039;28;20039;-63
2023/06/12 00:59:16;;;;;;;2.00;1.17;;;25.00;39.70;;;;;;5066148;28;20033;-65
2023/06/12 01:01:42;;;;;;;1.05;0.88;;;25.00;39.90;;;;;;5064834;28;20434;-65
2023/06/12 01:04:09;;;;;;;1.85;0.80;;;24.90;40.00;;;;;;5046442;28;20024;-63
2023/06/12 01:06:57;;;;;;;1.10;1.00;;;24.90;40.20;;;;;;5071588;28;20036;-63
2023/06/12 01:09:48;;;;;;;1.48;0.80;;;24.90;40.20;;;;;;5061743;28;20044;-63
2023/06/12 01:12:15;;;;;;;2.55;1.30;;;24.90;40.50;;;;;;5066638;28;20037;-63
2023/06/12 01:14:45;;;;;;;1.25;0.80;;;24.70;40.70;;;;;;5051240;28;20473;-63
2023/06/12 01:17:11;;;;;;;0.70;0.70;;;24.70;40.80;;;;;;5071756;28;20028;-65
2023/06/12 01:19:37;;;;;;;1.15;1.10;;;24.60;41.00;;;;;;5070933;28;20033;-66
2023/06/12 01:22:10;;;;;;;0.90;0.90;;;24.50;41.00;;;;;;5071080;28;20061;-65
2023/06/12 01:25:08;;;;;;;1.30;0.90;;;24.50;41.30;;;;;;5070625;28;20463;-66
2023/06/12 01:28:03;;;;;;;1.20;1.00;;;24.40;41.40;;;;;;5071076;28;20028;-66
2023/06/12 01:30:54;;;;;;;2.95;0.98;;;24.40;42.00;;;;;;5056673;28;20037;-65
2023/06/12 01:33:30;;;;;;;0.80;0.70;;;24.20;42.10;;;;;;5071138;28;20117;-65
2023/06/12 01:35:59;;;;;;;2.03;0.70;;;24.10;42.20;;;;;;5066375;28;20439;-66
2023/06/12 01:38:29;;;;;;;1.17;0.82;;;24.00;42.40;;;;;;5049567;28;20098;-63
2023/06/12 01:40:55;;;;;;;2.22;1.20;;;24.00;42.70;;;;;;5059790;28;20106;-66
2023/06/12 01:43:24;;;;;;;2.03;1.17;;;23.90;42.80;;;;;;5067044;28;20029;-65
2023/06/12 01:45:50;;;;;;;1.00;0.80;;;23.90;43.00;;;;;;5067986;28;20479;-63
2023/06/12 01:48:16;;;;;;;2.90;0.80;;;23.80;43.10;;;;;;5070679;28;20090;-63
2023/06/12 01:50:42;;;;;;;0.98;0.82;;;23.80;43.30;;;;;;5058970;28;20083;-63
2023/06/12 01:53:10;;;;;;;1.10;0.80;;;23.70;43.20;;;;;;5063181;28;20047;-63
2023/06/12 01:55:37;;;;;;;0.93;0.82;;;23.70;43.30;;;;;;5040634;28;20515;-62
2023/06/12 01:58:03;;;;;;;1.08;0.90;;;23.60;43.20;;;;;;5059699;28;20059;-63
2023/06/12 02:00:28;;;;;;;0.80;0.80;;;23.60;43.50;;;;;;5040442;28;20511;-63
2023/06/12 02:02:56;;;;;;;1.35;0.75;;;23.60;43.90;;;;;;5058514;28;20033;-63
2023/06/12 02:05:22;;;;;;;1.13;0.90;;;23.50;44.00;;;;;;5066666;28;20023;-64
2023/06/12 02:07:48;;;;;;;1.10;0.77;;;23.50;44.00;;;;;;5050932;28;20481;-65
2023/06/12 02:10:15;;;;;;;1.45;1.00;;;23.40;44.20;;;;;;5041653;28;20104;-65
2023/06/12 02:12:43;;;;;;;0.80;0.80;;;23.40;44.40;;;;;;5068158;28;20104;-63
2023/06/12 02:15:10;;;;;;;0.98;0.88;;;23.30;44.60;;;;;;5065545;28;20531;-67
2023/06/12 02:17:36;;;;;;;2.85;1.25;;;23.20;44.90;;;;;;5064673;28;20027;-66
2023/06/12 02:20:03;;;;;;;1.45;0.82;;;23.20;45.20;;;;;;5069846;28;20051;-63
2023/06/12 02:22:29;;;;;;;0.88;0.88;;;23.10;45.30;;;;;;5070254;28;20024;-63
2023/06/12 02:24:56;;;;;;;1.10;1.02;;;23.00;45.40;;;;;;5064313;28;20074;-63
2023/06/12 02:27:22;;;;;;;2.40;1.38;;;23.00;45.70;;;;;;5070573;28;20108;-63
2023/06/12 02:29:48;;;;;;;1.30;1.08;;;22.90;45.60;;;;;;5051866;28;20135;-63
2023/06/12 02:32:13;;;;;;;2.40;1.13;;;22.90;45.70;;;;;;5069809;28;20529;-63
2023/06/12 02:34:39;;;;;;;1.30;1.00;;;22.80;45.60;;;;;;5071122;28;20033;-63
2023/06/12 02:37:08;;;;;;;1.35;0.90;;;22.80;45.50;;;;;;5070110;28;20086;-63
2023/06/12 02:39:34;;;;;;;1.27;1.17;;;22.80;45.50;;;;;;5046415;28;20173;-63
2023/06/12 02:42:00;;;;;;;0.80;0.70;;;22.80;45.20;;;;;;5066320;28;20047;-63
2023/06/12 02:44:26;;;;;;;1.10;1.00;;;22.90;45.10;;;;;;5070187;28;20491;-63
2023/06/12 02:46:59;;;;;;;1.00;0.90;;;22.90;45.00;;;;;;5067295;28;20115;-63
2023/06/12 02:49:29;;;;;;;1.83;1.25;;;22.90;44.90;;;;;;5066571;28;20020;-63
2023/06/12 02:51:56;;;;;;;1.17;0.88;;;22.90;44.80;;;;;;5068307;28;20476;-63
2023/06/12 02:54:23;;;;;;;1.77;1.27;;;22.90;44.60;;;;;;5066595;28;20028;-63
2023/06/12 02:56:49;;;;;;;1.10;1.00;;;22.90;45.20;;;;;;5068085;28;20104;-63
2023/06/12 02:59:16;;;;;;;1.80;1.02;;;22.90;44.50;;;;;;5066467;28;20032;-62
2023/06/12 03:01:45;;;;;;;2.35;1.00;;;22.90;44.40;;;;;;5068970;28;20075;-63
2023/06/12 03:04:15;;;;;;;1.52;1.23;;;22.90;44.20;;;;;;5068643;28;20074;-63
2023/06/12 03:06:43;;;;;;;1.25;1.08;;;22.90;44.10;;;;;;5069303;28;20029;-62
2023/06/12 03:09:09;;;;;;;1.02;0.70;;;22.90;44.00;;;;;;5065229;28;20032;-63
2023/06/12 03:11:38;;;;;;;1.20;0.90;;;23.00;44.10;;;;;;5048486;28;20032;-62
2023/06/12 03:14:08;;;;;;;2.22;1.10;;;23.00;44.10;;;;;;5059519;28;20494;-63
2023/06/12 03:16:34;;;;;;;1.08;0.98;;;23.00;44.10;;;;;;5069134;28;20075;-62
2023/06/12 03:19:00;;;;;;;1.27;0.95;;;22.90;44.20;;;;;;5061369;28;20032;-63
2023/06/12 03:21:26;;;;;;;3.40;1.05;;;22.90;44.20;;;;;;5053686;28;20024;-63
2023/06/12 03:23:52;;;;;;;1.42;0.90;;;22.90;44.40;;;;;;5070626;28;20020;-65
2023/06/12 03:26:17;;;;;;;1.50;0.73;;;22.90;44.70;;;;;;5057290;28;20024;-66
2023/06/12 03:28:45;;;;;;;1.20;1.00;;;22.80;44.80;;;;;;5062191;28;20037;-65
2023/06/12 03:31:11;;;;;;;1.00;0.90;;;22.70;44.70;;;;;;5065064;28;20031;-65
2023/06/12 03:33:36;;;;;;;1.38;1.15;;;22.70;44.70;;;;;;5023326;28;20036;-65
2023/06/12 03:36:03;;;;;;;1.95;0.85;;;22.70;44.70;;;;;;5065564;28;20032;-65
2023/06/12 03:38:28;;;;;;;1.08;0.98;;;22.70;44.70;;;;;;5044924;28;20057;-66
2023/06/12 03:40:54;;;;;;;2.45;1.00;;;22.70;44.70;;;;;;5064880;28;20029;-65
2023/06/12 03:43:20;;;;;;;1.17;1.08;;;22.70;44.80;;;;;;5057750;28;20430;-65
2023/06/12 03:45:46;;;;;;;1.00;0.80;;;22.60;44.90;;;;;;5068129;28;20550;-65
2023/06/12 03:48:11;;;;;;;1.00;0.90;;;22.60;45.00;;;;;;5057877;28;20090;-65
2023/06/12 03:50:37;;;;;;;1.13;0.80;;;22.60;45.10;;;;;;5068639;28;20052;-66
2023/06/12 03:53:03;;;;;;;1.40;0.93;;;22.60;45.30;;;;;;5069092;28;20092;-66
2023/06/12 03:55:29;;;;;;;2.08;1.10;;;22.60;45.50;;;;;;5068075;28;20165;-65
2023/06/12 03:57:56;;;;;;;0.88;0.82;;;22.60;45.70;;;;;;5068587;28;20048;-65
2023/06/12 04:00:22;;;;;;;1.23;1.02;;;22.60;45.90;;;;;;5067866;28;20536;-65
2023/06/12 04:02:48;;;;;;;1.08;0.63;;;22.50;45.90;;;;;;5065925;28;20024;-65
2023/06/12 04:05:14;;;;;;;1.02;0.93;;;22.50;46.10;;;;;;5066830;28;20033;-63
2023/06/12 04:07:39;;;;;;;1.63;1.02;;;22.50;46.50;;;;;;5066695;28;20024;-63
2023/06/12 04:10:08;;;;;;;1.13;0.88;;;22.40;46.70;;;;;;5068050;28;20025;-63
2023/06/12 04:12:33;;;;;;;0.90;0.82;;;22.40;46.90;;;;;;5067089;28;20032;-62
2023/06/12 04:15:01;;;;;;;1.00;0.85;;;22.40;47.00;;;;;;5061834;28;20032;-62
2023/06/12 04:17:26;;;;;;;1.58;1.15;;;22.40;47.10;;;;;;5067168;28;20475;-62
2023/06/12 04:19:52;;;;;;;1.23;0.90;;;22.40;47.40;;;;;;5065382;28;20086;-62
2023/06/12 04:22:19;;;;;;;0.88;0.88;;;22.40;47.80;;;;;;5068650;28;20029;-62
2023/06/12 04:24:45;;;;;;;1.63;1.27;;;22.40;48.10;;;;;;5059060;28;20337;-61
2023/06/12 04:27:11;;;;;;;0.88;0.88;;;22.40;48.00;;;;;;5067044;28;20582;-62
2023/06/12 04:29:38;;;;;;;1.65;0.95;;;22.40;48.00;;;;;;5065478;28;20507;-62
2023/06/12 04:32:07;;;;;;;1.35;0.88;;;22.50;48.00;;;;;;5067757;28;20024;-62
2023/06/12 04:34:43;;;;;;;0.85;0.85;;;22.60;48.10;;;;;;5060954;28;20394;-61
2023/06/12 04:37:14;;;;;;;0.82;0.82;;;22.60;48.00;;;;;;5058075;28;20019;-62
2023/06/12 04:39:43;;;;;;;1.83;1.10;;;22.60;48.10;;;;;;5053701;28;20450;-63
2023/06/12 04:42:10;;;;;;;1.27;1.17;;;22.70;48.20;;;;;;5060905;28;20472;-63
2023/06/12 04:44:37;;;;;;;1.20;1.00;;;22.80;48.40;;;;;;5067492;28;20496;-63
2023/06/12 04:47:11;;;;;;;1.42;1.15;;;22.80;47.90;;;;;;5050446;28;20024;-63
2023/06/12 04:49:40;;;;;;;1.00;0.90;;;22.90;47.60;;;;;;5061523;28;20021;-64
2023/06/12 04:52:07;;;;;;;1.33;1.02;;;23.00;47.50;;;;;;5068094;28;20480;-63
2023/06/12 04:54:35;;;;;;;2.55;1.10;;;23.10;47.30;;;;;;5068923;28;20029;-63
2023/06/12 04:57:07;;;;;;;1.50;0.90;;;23.10;47.10;;;;;;5068385;28;20135;-64
2023/06/12 04:59:37;;;;;;;0.80;0.70;;;23.20;47.20;;;;;;5066084;28;20035;-63
2023/06/12 05:02:04;;;;;;;0.98;0.70;;;23.20;47.30;;;;;;5068256;28;20082;-64
2023/06/12 05:04:30;;;;;;;0.95;0.80;;;23.30;47.10;;;;;;5057709;28;20079;-66
2023/06/12 05:06:56;;;;;;;0.98;0.77;;;23.30;46.90;;;;;;5059552;28;20594;-65
2023/06/12 05:09:22;;;;;;;1.20;0.90;;;23.40;47.00;;;;;;5066817;28;20036;-65
2023/06/12 05:11:47;;;;;;;1.65;1.10;;;23.50;47.00;;;;;;5058289;28;20108;-66
2023/06/12 05:14:13;;;;;;;1.05;0.93;;;23.60;46.90;;;;;;5068335;28;20506;-65
2023/06/12 05:16:39;;;;;;;1.35;1.25;;;23.60;46.80;;;;;;5058685;28;20392;-64
2023/06/12 05:19:06;;;;;;;1.17;1.00;;;23.60;46.60;;;;;;5051340;28;20106;-64
2023/06/12 05:21:32;;;;;;;1.20;0.82;;;23.70;46.40;;;;;;5047626;28;20036;-64
2023/06/12 05:23:58;;;;;;;0.80;0.80;;;23.80;46.20;;;;;;5065816;28;20229;-64
2023/06/12 05:26:23;;;;;;;1.58;1.10;;;23.90;46.00;;;;;;5042523;28;20118;-65
2023/06/12 05:28:49;;;;;;;1.15;1.05;;;23.90;45.70;;;;;;5056521;28;20078;-66
2023/06/12 05:31:15;;;;;;;1.15;1.02;;;24.00;45.50;;;;;;5063829;28;20566;-65
2023/06/12 05:33:40;;;;;;;0.93;0.88;;;24.00;45.20;;;;;;5059626;28;20431;-66
2023/06/12 05:36:07;;;;;;;1.42;1.10;;;24.10;45.10;;;;;;5060959;28;20044;-66
2023/06/12 05:38:33;;;;;;;1.60;1.02;;;24.10;44.90;;;;;;5032467;28;20048;-66
2023/06/12 05:40:59;;;;;;;1.55;1.27;;;24.20;44.80;;;;;;5048877;28;20392;-65
2023/06/12 05:43:25;;;;;;;1.58;0.90;;;24.20;44.60;;;;;;5050035;28;20033;-65
2023/06/12 05:45:50;;;;;;;1.30;0.98;;;24.20;45.00;;;;;;5070183;28;20025;-64
2023/06/12 05:48:18;;;;;;;6.20;1.25;;;24.30;44.40;;;;;;5071646;28;20025;-65
2023/06/12 05:50:44;;;;;;;1.08;0.95;;;24.30;44.40;;;;;;5069106;28;20025;-65
2023/06/12 05:53:10;;;;;;;3.13;1.00;;;24.40;44.40;;;;;;5053634;28;20033;-65
2023/06/12 05:55:36;;;;;;;0.80;0.80;;;24.50;44.50;;;;;;5052391;28;20093;-64
2023/06/12 05:58:02;;;;;;;2.28;1.00;;;24.60;44.40;;;;;;5053442;28;20029;-65
2023/06/12 06:00:27;;;;;;;1.70;0.90;;;24.70;44.30;;;;;;5068418;28;20525;-64
2023/06/12 06:02:53;;;;;;;1.25;0.85;;;24.80;44.20;;;;;;5067597;28;20056;-66
2023/06/12 06:05:19;;;;;;;1.75;1.17;;;24.80;44.10;;;;;;5051177;28;20067;-66
2023/06/12 06:07:45;;;;;;;0.80;0.80;;;24.90;44.00;;;;;;5053058;28;20040;-66
2023/06/12 06:10:11;;;;;;;1.08;0.75;;;24.90;44.00;;;;;;5070070;28;20115;-65
2023/06/12 06:12:37;;;;;;;1.98;1.13;;;24.90;44.00;;;;;;5071313;28;20032;-65
2023/06/12 06:15:03;;;;;;;1.65;1.00;;;25.10;44.00;;;;;;5046475;28;20027;-64
2023/06/12 06:17:29;;;;;;;1.52;0.90;;;25.10;43.70;;;;;;5071059;28;20123;-63
2023/06/12 06:19:55;;;;;;;4.20;1.92;;;25.10;43.50;;;;;;5051618;28;20123;-63
2023/06/12 06:22:24;;;;;;;1.35;1.00;;;25.10;43.40;;;;;;5068955;28;20033;-64
2023/06/12 06:24:49;;;;;;;1.15;1.00;;;25.10;43.30;;;;;;5045906;28;21016;-64
2023/06/12 06:27:15;;;;;;;1.58;0.82;;;25.20;43.40;;;;;;5063502;28;20029;-63
2023/06/12 06:29:41;;;;;;;1.30;0.98;;;25.10;43.40;;;;;;5058469;28;20028;-64
2023/06/12 06:32:07;;;;;;;1.75;1.10;;;25.10;43.30;;;;;;5066559;28;20040;-64
2023/06/12 06:34:32;;;;;;;1.38;0.93;;;25.20;43.30;;;;;;5052402;28;20067;-64
2023/06/12 06:36:58;;;;;;;2.33;1.33;;;25.20;43.30;;;;;;5047325;28;20078;-64
2023/06/12 06:39:24;;;;;;;1.55;0.90;;;25.20;43.10;;;;;;5070173;28;20032;-66
2023/06/12 06:41:49;;;;;;;2.05;1.55;;;25.20;43.00;;;;;;5064517;28;20056;-66
2023/06/12 06:44:15;;;;;;;3.17;1.60;;;25.30;43.00;;;;;;5049403;28;20041;-64
2023/06/12 06:46:41;;;;;;;1.00;0.90;;;25.30;42.80;;;;;;5069275;28;20080;-66
2023/06/12 06:49:07;;;;;;;1.65;1.35;;;25.40;42.70;;;;;;5061336;28;20031;-65
2023/06/12 06:51:33;;;;;;;1.10;1.02;;;25.50;42.70;;;;;;5065139;28;20099;-65
2023/06/12 06:53:58;;;;;;;1.80;0.95;;;25.50;42.70;;;;;;5069091;28;20439;-65
2023/06/12 06:56:24;;;;;;;1.33;1.17;;;25.50;42.60;;;;;;5063081;28;20365;-65
2023/06/12 06:58:50;;;;;;;1.20;0.90;;;25.60;42.60;;;;;;5064665;28;20032;-65
2023/06/12 07:01:17;;;;;;;3.22;1.42;;;25.80;43.10;;;;;;5049865;28;20080;-65
2023/06/12 07:03:42;;;;;;;2.33;1.60;;;25.80;43.10;;;;;;5044570;28;20103;-65
2023/06/12 07:06:08;;;;;;;2.40;1.48;;;25.90;43.50;;;;;;5069235;28;20108;-65
2023/06/12 07:08:34;;;;;;;1.58;1.20;;;26.00;42.50;;;;;;5067743;28;20033;-65
2023/06/12 07:10:59;;;;;;;1.25;1.10;;;26.10;42.40;;;;;;5064801;28;20452;-65
2023/06/12 07:13:25;;;;;;;3.65;1.40;;;26.10;42.20;;;;;;5065973;28;20090;-64
2023/06/12 07:15:51;;;;;;;2.47;1.80;;;26.20;42.10;;;;;;5069580;28;20033;-65
2023/06/12 07:18:17;;;;;;;1.52;1.33;;;26.30;42.10;;;;;;5056538;28;20033;-63
2023/06/12 07:20:43;;;;;;;2.90;1.92;;;26.30;41.90;;;;;;5056754;28;20033;-63
2023/06/12 07:23:09;;;;;;;2.47;1.85;;;26.40;41.90;;;;;;5065107;28;20116;-64
2023/06/12 07:25:34;;;;;;;2.25;1.75;;;26.40;41.80;;;;;;5058206;28;20029;-64
2023/06/12 07:28:00;;;;;;;2.30;1.52;;;26.40;41.90;;;;;;5069514;28;20048;-65
2023/06/12 07:30:26;;;;;;;2.20;2.00;;;26.50;41.80;;;;;;5061726;28;20086;-64
2023/06/12 07:32:52;;;;;;;2.42;1.52;;;26.60;41.80;;;;;;5019671;28;20162;-65
2023/06/12 07:35:18;;;;;;;2.70;1.92;;;26.60;41.90;;;;;;5067704;28;20107;-64
2023/06/12 07:37:45;;;;;;;1.83;1.60;;;26.60;42.00;;;;;;5065332;28;20437;-64
2023/06/12 07:40:12;;;;;;;2.38;1.50;;;26.60;42.00;;;;;;5060775;28;20069;-64
2023/06/12 07:42:38;;;;;;;1.63;1.13;;;26.70;42.00;;;;;;5056926;28;20036;-64
2023/06/12 07:45:04;;;;;;;3.38;1.83;;;26.80;42.00;;;;;;5046891;28;20025;-65
2023/06/12 07:47:30;;;;;;;2.85;1.70;;;26.80;41.90;;;;;;5064424;28;20036;-64
2023/06/12 07:49:56;;;;;;;1.35;1.25;;;26.90;41.80;;;;;;5046308;28;20059;-64
2023/06/12 07:52:23;;;;;;;1.98;1.70;;;27.00;41.90;;;;;;5026860;28;20037;-65
2023/06/12 07:54:50;;;;;;;2.22;1.13;;;27.00;41.70;;;;;;5046907;28;20094;-64
2023/06/12 07:57:16;;;;;;;2.65;1.65;;;27.10;41.80;;;;;;5066846;28;20036;-64
2023/06/12 07:59:42;;;;;;;1.73;1.20;;;27.20;41.90;;;;;;5065961;28;20087;-64
2023/06/12 08:02:09;;;;;;;2.47;2.00;;;27.30;41.70;;;;;;5067014;28;20056;-64
2023/06/12 08:04:35;;;;;;;2.67;1.88;;;27.40;41.40;;;;;;5048332;28;20092;-65
2023/06/12 08:07:01;;;;;;;1.83;1.48;;;27.40;41.20;;;;;;5066589;28;20132;-64
2023/06/12 08:09:26;;;;;;;1.63;1.27;;;27.40;41.30;;;;;;5061787;28;20481;-63
2023/06/12 08:11:52;;;;;;;1.58;1.48;;;27.50;41.30;;;;;;5067321;28;20077;-63
2023/06/12 08:14:20;;;;;;;2.92;1.73;;;27.60;41.30;;;;;;5064473;28;20036;-64
2023/06/12 08:16:46;;;;;;;1.92;1.27;;;27.80;41.20;;;;;;5046717;28;20047;-64
2023/06/12 08:19:12;;;;;;;1.38;1.17;;;27.90;41.20;;;;;;5063115;28;20040;-64
2023/06/12 08:21:39;;;;;;;2.17;1.50;;;28.00;41.00;;;;;;5066730;28;20025;-64
2023/06/12 08:24:07;;;;;;;6.63;1.35;;;28.10;40.90;;;;;;5063125;28;20024;-64
2023/06/12 08:26:33;;;;;;;1.95;1.50;;;28.20;40.80;;;;;;5045353;28;20033;-64
2023/06/12 08:29:00;;;;;;;1.38;1.00;;;28.30;40.70;;;;;;5058399;28;20039;-64
2023/06/12 08:31:25;;;;;;;2.45;1.30;;;28.40;40.60;;;;;;5056822;28;20107;-63
2023/06/12 08:33:51;;;;;;;1.25;0.95;;;28.50;40.50;;;;;;5064469;28;20024;-64
2023/06/12 08:36:17;;;;;;;1.15;1.05;;;28.70;40.40;;;;;;5064463;28;20404;-64
2023/06/12 08:38:42;;;;;;;1.42;1.08;;;28.70;40.10;;;;;;5045652;28;20073;-64
2023/06/12 08:41:09;;;;;;;3.03;1.30;;;28.80;40.20;;;;;;5067297;28;20021;-64
2023/06/12 08:43:35;;;;;;;3.65;1.20;;;29.00;40.10;;;;;;5064981;28;20025;-64
2023/06/12 08:46:06;;;;;;;2.53;1.25;;;29.00;39.90;;;;;;5052915;28;20028;-64
2023/06/12 08:48:32;;;;;;;;;;;29.10;39.70;;;;;;5061738;28;20033;-64
2023/06/12 08:51:00;;;;;;;2.22;1.27;;;29.30;39.70;;;;;;5040830;28;19936;-64
2023/06/12 08:53:27;;;;;;;2.25;1.00;;;29.30;39.50;;;;;;5063830;28;20029;-64
2023/06/12 08:55:54;;;;;;;1.55;1.45;;;29.40;39.20;;;;;;5058948;28;20033;-64
2023/06/12 08:58:20;;;;;;;1.92;1.45;;;29.50;39.00;;;;;;5058199;28;20093;-63
2023/06/12 09:00:46;;;;;;;2.28;1.80;;;29.50;38.80;;;;;;5056556;28;20057;-64
2023/06/12 09:03:12;;;;;;;1.65;1.40;;;29.60;38.80;;;;;;5066540;28;20035;-64
2023/06/12 09:05:39;;;;;;;1.83;1.40;;;29.70;38.70;;;;;;5057820;28;20109;-64
2023/06/12 09:08:05;;;;;;;1.73;1.10;;;29.70;38.40;;;;;;5060128;28;20013;-64
2023/06/12 09:10:33;;;;;;;1.83;1.45;;;29.80;38.50;;;;;;5047839;28;20028;-64
2023/06/12 09:12:59;;;;;;;1.55;1.40;;;29.80;38.10;;;;;;5063566;28;20078;-64
2023/06/12 09:15:25;;;;;;;2.30;1.52;;;29.90;38.00;;;;;;5032787;28;20024;-64
2023/06/12 09:17:55;;;;;;;1.65;1.23;;;30.00;37.70;;;;;;5057619;28;20490;-64
2023/06/12 09:20:28;;;;;;;1.58;1.45;;;30.00;37.40;;;;;;5049565;28;20028;-64
2023/06/12 09:22:55;;;;;;;1.50;1.40;;;30.00;37.10;;;;;;5059704;28;20035;-64
2023/06/12 09:25:25;;;;;;;1.60;1.45;;;30.10;37.20;;;;;;5070190;28;20039;-64
2023/06/12 09:27:51;;;;;;;1.75;1.60;;;30.20;37.30;;;;;;5062986;28;20682;-64
2023/06/12 09:30:17;;;;;;;2.05;1.30;;;30.30;37.30;;;;;;5066317;28;20111;-65
2023/06/12 09:32:44;;;;;;;1.63;1.50;;;30.40;37.40;;;;;;5062635;28;20476;-64
2023/06/12 09:35:11;;;;;;;2.28;1.65;;;30.60;37.10;;;;;;5069792;28;20028;-65
2023/06/12 09:37:38;;;;;;;1.52;1.30;;;30.70;36.80;;;;;;5071784;28;20079;-65
2023/06/12 09:40:12;;;;;;;2.22;1.38;;;30.80;36.30;;;;;;5068493;28;20115;-65
2023/06/12 09:42:38;;;;;;;1.67;1.50;;;30.90;35.90;;;;;;5063030;28;20029;-63
2023/06/12 09:45:11;;;;;;;1.63;1.52;;;31.00;35.70;;;;;;5050231;28;20029;-65
2023/06/12 09:47:55;;;;;;;1.90;1.55;;;31.10;35.70;;;;;;5066580;28;20624;-65
2023/06/12 09:50:23;;;;;;;1.42;1.17;;;31.20;35.10;;;;;;5069342;28;20036;-65
2023/06/12 09:52:49;;;;;;;1.45;1.33;;;31.30;35.20;;;;;;5061715;28;20036;-65
2023/06/12 09:55:18;;;;;;;1.50;1.00;;;31.40;34.70;;;;;;5068398;28;20127;-65
2023/06/12 09:57:52;;;;;;;2.03;1.30;;;31.40;33.90;;;;;;5066220;28;20032;-65
2023/06/12 10:00:19;;;;;;;2.10;1.48;;;31.50;33.50;;;;;;5065645;28;20098;-65
2023/06/12 10:03:00;;;;;;;1.92;1.73;;;31.60;33.10;;;;;;5046716;28;20067;-65
2023/06/12 10:05:40;;;;;;;1.25;1.15;;;31.60;32.30;;;;;;5044045;28;20037;-65
2023/06/12 10:08:07;;;;;;;1.15;1.05;;;31.60;32.10;;;;;;5064463;28;20013;-65
2023/06/12 10:10:36;;;;;;;1.35;1.25;;;31.70;32.20;;;;;;5063543;28;20476;-66
2023/06/12 10:13:03;;;;;;;2.00;1.17;;;31.90;32.00;;;;;;5063980;28;20099;-66
2023/06/12 10:15:30;;;;;;;2.28;1.20;;;31.90;31.70;;;;;;5063065;28;20120;-64
2023/06/12 10:17:57;;;;;;;2.08;1.50;;;31.90;30.90;;;;;;5042861;28;20021;-64
2023/06/12 10:20:25;;;;;;;1.30;1.20;;;32.00;31.20;;;;;;5046789;28;20044;-66
2023/06/12 10:22:54;;;;;;;1.55;1.10;;;32.10;31.40;;;;;;5061957;28;20108;-65
2023/06/12 10:25:20;;;;;;;1.40;1.20;;;32.20;31.40;;;;;;5064171;28;20024;-66
2023/06/12 10:27:47;;;;;;;1.00;1.00;;;32.30;31.00;;;;;;5063432;28;20033;-64
2023/06/12 10:30:15;;;;;;;1.38;1.20;;;32.50;31.20;;;;;;5046254;28;20475;-64
2023/06/12 10:32:43;;;;;;;1.15;1.00;;;32.50;31.10;;;;;;5065612;28;20031;-64
2023/06/12 10:35:08;;;;;;;1.40;1.23;;;32.60;30.90;;;;;;5061486;28;20032;-64
2023/06/12 10:37:55;;;;;;;1.45;1.20;;;32.70;30.90;;;;;;5064817;28;20045;-64
2023/06/12 10:40:22;;;;;;;2.92;1.02;;;32.70;31.10;;;;;;5060409;28;20029;-64
2023/06/12 10:42:54;;;;;;;1.75;1.17;;;32.90;31.20;;;;;;5067985;28;20479;-64
2023/06/12 10:45:34;;;;;;;1.30;1.20;;;33.00;31.30;;;;;;5061081;28;20029;-64
2023/06/12 10:48:05;;;;;;;1.38;1.23;;;33.20;31.00;;;;;;5062116;28;20029;-66
2023/06/12 10:50:31;;;;;;;1.20;1.10;;;33.30;31.00;;;;;;5062687;28;20043;-66
2023/06/12 10:53:01;;;;;;;2.65;1.20;;;33.40;31.10;;;;;;5063503;28;20259;-66
2023/06/12 10:55:27;;;;;;;1.45;1.20;;;33.50;31.10;;;;;;5060243;28;20043;-64
2023/06/12 10:58:14;;;;;;;1.40;1.30;;;33.60;31.70;;;;;;5062884;28;20028;-66
2023/06/12 11:00:51;;;;;;;1.40;1.30;;;33.60;31.10;;;;;;5068683;28;20063;-66
2023/06/12 11:03:28;;;;;;;2.60;2.05;;;33.70;31.10;;;;;;5066769;28;20071;-66
2023/06/12 11:06:05;;;;;;;1.85;1.40;;;33.70;31.20;;;;;;5068160;28;20116;-64
2023/06/12 11:08:31;;;;;;;1.80;1.50;;;33.70;31.30;;;;;;5067750;28;20082;-64
2023/06/12 11:10:57;;;;;;;1.35;1.25;;;33.80;31.40;;;;;;5069889;28;20029;-66
2023/06/12 11:13:26;;;;;;;1.48;1.27;;;33.90;31.50;;;;;;5064556;28;20033;-64
2023/06/12 11:15:53;;;;;;;1.50;1.40;;;33.90;31.60;;;;;;5060760;28;20028;-66
2023/06/12 11:18:19;;;;;;;2.20;1.48;;;34.00;31.80;;;;;;5068991;28;20028;-64
2023/06/12 11:20:56;;;;;;;2.05;1.60;;;34.10;31.90;;;;;;5062633;28;20032;-64
2023/06/12 11:23:26;;;;;;;1.10;1.00;;;34.20;31.80;;;;;;5055437;28;20086;-66
2023/06/12 11:25:57;;;;;;;2.47;1.83;;;34.40;32.00;;;;;;5059051;28;20021;-64
2023/06/12 11:28:24;;;;;;;1.67;1.48;;;34.60;31.90;;;;;;5059157;28;20040;-64
2023/06/12 11:30:51;;;;;;;1.83;1.60;;;34.60;31.80;;;;;;5048153;28;20032;-66
2023/06/12 11:33:17;;;;;;;1.13;1.05;;;34.70;31.90;;;;;;5065390;28;20032;-66
2023/06/12 11:35:44;;;;;;;2.13;1.75;;;34.80;31.90;;;;;;5067758;28;20040;-64
2023/06/12 11:38:15;;;;;;;1.70;1.50;;;34.80;31.70;;;;;;5066665;28;20025;-66
2023/06/12 11:40:41;;;;;;;1.38;1.27;;;34.90;31.80;;;;;;5062514;28;20028;-64
2023/06/12 11:43:07;;;;;;;1.73;1.45;;;34.90;31.80;;;;;;5047426;28;20031;-64
2023/06/12 11:45:34;;;;;;;1.80;1.30;;;35.00;31.80;;;;;;5063882;28;20036;-67
2023/06/12 11:48:00;;;;;;;2.60;1.50;;;35.00;31.80;;;;;;5064369;28;20021;-66
2023/06/12 11:50:27;;;;;;;2.67;1.80;;;34.90;31.80;;;;;;5059335;28;20094;-66
2023/06/12 11:52:55;;;;;;;1.52;1.42;;;35.00;32.00;;;;;;5045123;28;20391;-66
2023/06/12 11:55:21;;;;;;;1.52;1.42;;;35.10;32.20;;;;;;5061941;28;20120;-66
2023/06/12 11:57:51;;;;;;;2.45;1.70;;;35.20;32.30;;;;;;5063929;28;20101;-64
2023/06/12 12:00:21;;;;;;;1.85;1.42;;;35.30;31.90;;;;;;5066012;28;20430;-64
2023/06/12 12:02:55;;;;;;;2.95;1.75;;;35.30;32.10;;;;;;5059923;28;20028;-66
2023/06/12 12:05:23;;;;;;;2.28;1.40;;;35.20;32.00;;;;;;5055504;28;20414;-66
2023/06/12 12:07:59;;;;;;;1.63;1.52;;;35.20;32.00;;;;;;5056942;28;20059;-66
2023/06/12 12:10:29;;;;;;;1.48;1.10;;;35.20;32.00;;;;;;5054862;28;20107;-66
2023/06/12 12:13:00;;;;;;;1.40;1.30;;;35.10;32.20;;;;;;5057469;28;20032;-67
2023/06/12 12:15:28;;;;;;;1.55;1.10;;;35.20;32.10;;;;;;5045123;28;20036;-66
2023/06/12 12:17:54;;;;;;;3.67;1.48;;;35.30;31.90;;;;;;5063463;28;20029;-64
2023/06/12 12:20:22;;;;;;;2.55;1.40;;;35.50;31.50;;;;;;5062623;28;20032;-66
2023/06/12 12:22:50;;;;;;;1.40;1.10;;;35.60;31.30;;;;;;5061395;28;20032;-66
2023/06/12 12:25:22;;;;;;;1.17;1.10;;;35.70;31.30;;;;;;5056814;28;20031;-66
2023/06/12 12:27:50;;;;;;;1.30;1.20;;;35.90;31.20;;;;;;5058300;28;20371;-66
2023/06/12 12:30:17;;;;;;;1.40;1.30;;;35.90;31.20;;;;;;5058777;28;20286;-65
2023/06/12 12:32:44;;;;;;;1.30;1.20;;;36.00;31.30;;;;;;5063422;28;20029;-64
2023/06/12 12:35:11;;;;;;;2.03;1.83;;;36.00;31.10;;;;;;5057868;28;20028;-65
2023/06/12 12:37:37;;;;;;;1.67;1.58;;;36.00;31.00;;;;;;5061945;28;20047;-64
2023/06/12 12:40:13;;;;;;;1.52;1.42;;;35.90;30.70;;;;;;5055094;28;20040;-64
2023/06/12 12:42:49;;;;;;;1.63;1.25;;;35.70;30.70;;;;;;5059433;28;20115;-64
2023/06/12 12:45:17;;;;;;;1.30;1.20;;;35.60;31.00;;;;;;5062144;28;20070;-64
2023/06/12 12:47:44;;;;;;;1.50;1.40;;;35.40;31.00;;;;;;5066990;28;20032;-66
2023/06/12 12:50:11;;;;;;;1.55;1.30;;;35.50;30.90;;;;;;5060221;28;20028;-64